sensor_id;sensor_type;location;lat;lon;timestamp;pressure;altitude;pressure_sealevel;temperature;humidity
32243;BME280;18731;42.830;24.390;2023-05-20T03:00:17;94822.94;;;8.54;83.08
32243;BME280;18731;42.830;24.390;2023-05-20T03:18:14;94923.00;;;9.34;85.48
32243;BME280;18731;42.830;24.390;2023-05-20T03:23:15;94734.97;;;8.20;85.53
32243;BME280;18731;42.830;24.390;2023-05-20T03:33:27;94926.38;;;9.75;86.21
32243;BME280;18731;42.830;24.390;2023-05-20T03:43:38;94861.13;;;9.46;84.88
32243;BME280;18731;42.830;24.390;2023-05-20T03:46:05;94726.84;;;8.56;84.88
32243;BME280;18731;42.830;24.390;2023-05-20T03:48:31;94686.44;;;8.36;84.57
32243;BME280;18731;42.830;24.390;2023-05-20T03:53:35;94733.16;;;8.77;83.43
32243;BME280;18731;42.830;24.390;2023-05-20T03:56:01;94802.31;;;9.17;83.62
32243;BME280;18731;42.830;24.390;2023-05-20T03:58:30;94942.72;;;10.08;83.61
32243;BME280;18731;42.830;24.390;2023-05-20T04:00:56;94711.38;;;8.58;83.73
32243;BME280;18731;42.830;24.390;2023-05-20T04:03:41;94936.44;;;10.12;83.84
32243;BME280;18731;42.830;24.390;2023-05-20T04:09:02;94856.59;;;9.55;87.40
32243;BME280;18731;42.830;24.390;2023-05-20T04:14:03;94802.19;;;9.39;86.13
32243;BME280;18731;42.830;24.390;2023-05-20T04:16:30;94838.09;;;9.67;85.96
32243;BME280;18731;42.830;24.390;2023-05-20T04:18:56;94925.03;;;10.38;85.02
32243;BME280;18731;42.830;24.390;2023-05-20T07:02:44;94881.81;;;17.45;66.66
32243;BME280;18731;42.830;24.390;2023-05-20T07:05:10;94719.56;;;16.94;64.03
32243;BME280;18731;42.830;24.390;2023-05-20T07:07:37;94804.69;;;17.97;60.74
32243;BME280;18731;42.830;24.390;2023-05-20T07:10:04;94863.56;;;18.78;60.08
32243;BME280;18731;42.830;24.390;2023-05-20T07:12:31;94826.13;;;18.80;59.69
32243;BME280;18731;42.830;24.390;2023-05-20T07:14:57;94842.69;;;19.15;60.66
32243;BME280;18731;42.830;24.390;2023-05-20T07:17:23;94853.94;;;19.65;58.32
32243;BME280;18731;42.830;24.390;2023-05-20T07:19:50;94853.03;;;20.09;56.83
32243;BME280;18731;42.830;24.390;2023-05-20T07:22:15;94830.09;;;19.88;55.37
32243;BME280;18731;42.830;24.390;2023-05-20T07:24:41;94849.09;;;19.99;54.93
32243;BME280;18731;42.830;24.390;2023-05-20T07:27:07;94848.69;;;19.94;53.83
32243;BME280;18731;42.830;24.390;2023-05-20T07:29:34;94833.09;;;19.76;55.99
32243;BME280;18731;42.830;24.390;2023-05-20T07:32:00;94842.75;;;19.74;56.82
32243;BME280;18731;42.830;24.390;2023-05-20T07:34:26;94833.91;;;19.84;57.71
32243;BME280;18731;42.830;24.390;2023-05-20T07:36:51;94843.44;;;20.26;59.02
32243;BME280;18731;42.830;24.390;2023-05-20T07:39:17;94836.47;;;20.28;54.12
32243;BME280;18731;42.830;24.390;2023-05-20T07:41:44;94846.47;;;20.17;50.23
32243;BME280;18731;42.830;24.390;2023-05-20T07:44:10;94837.19;;;20.18;55.11
32243;BME280;18731;42.830;24.390;2023-05-20T07:46:37;94839.53;;;20.23;55.93
32243;BME280;18731;42.830;24.390;2023-05-20T07:49:03;94834.19;;;20.37;53.73
32243;BME280;18731;42.830;24.390;2023-05-20T07:51:29;94828.47;;;20.64;52.56
32243;BME280;18731;42.830;24.390;2023-05-20T07:54:05;94828.88;;;20.66;48.14
32243;BME280;18731;42.830;24.390;2023-05-20T07:56:42;94818.88;;;20.91;49.37
32243;BME280;18731;42.830;24.390;2023-05-20T07:59:13;94812.69;;;21.12;49.88
32243;BME280;18731;42.830;24.390;2023-05-20T08:04:21;94806.88;;;21.67;48.00
32243;BME280;18731;42.830;24.390;2023-05-20T08:06:47;94805.66;;;21.93;45.96
32243;BME280;18731;42.830;24.390;2023-05-20T08:09:14;94741.75;;;21.13;45.12
32243;BME280;18731;42.830;24.390;2023-05-20T08:11:40;94815.38;;;21.87;46.35
32243;BME280;18731;42.830;24.390;2023-05-20T08:14:05;94820.25;;;22.49;50.18
32243;BME280;18731;42.830;24.390;2023-05-20T08:16:31;94807.72;;;22.65;45.59
32243;BME280;18731;42.830;24.390;2023-05-20T08:18:57;94817.69;;;22.06;47.61
32243;BME280;18731;42.830;24.390;2023-05-20T08:21:22;94815.03;;;21.67;46.21
32243;BME280;18731;42.830;24.390;2023-05-20T08:23:48;94772.00;;;21.05;47.59
32243;BME280;18731;42.830;24.390;2023-05-20T08:26:14;94808.44;;;21.64;48.77
32243;BME280;18731;42.830;24.390;2023-05-20T08:28:39;94782.47;;;21.35;50.10
32243;BME280;18731;42.830;24.390;2023-05-20T08:31:05;94792.56;;;21.31;49.30
32243;BME280;18731;42.830;24.390;2023-05-20T08:33:31;94770.06;;;21.23;50.38
32243;BME280;18731;42.830;24.390;2023-05-20T08:35:56;94795.66;;;21.47;49.96
32243;BME280;18731;42.830;24.390;2023-05-20T08:38:22;94796.44;;;21.23;48.17
32243;BME280;18731;42.830;24.390;2023-05-20T08:40:53;94794.88;;;21.22;48.83
32243;BME280;18731;42.830;24.390;2023-05-20T08:43:20;94791.38;;;21.57;49.70
32243;BME280;18731;42.830;24.390;2023-05-20T08:45:46;94791.28;;;21.96;48.24
32243;BME280;18731;42.830;24.390;2023-05-20T08:48:14;94791.66;;;22.08;48.33
32243;BME280;18731;42.830;24.390;2023-05-20T08:50:41;94793.59;;;22.08;44.98
32243;BME280;18731;42.830;24.390;2023-05-20T08:53:07;94797.88;;;22.09;48.68
32243;BME280;18731;42.830;24.390;2023-05-20T08:55:45;94785.84;;;22.10;50.14
32243;BME280;18731;42.830;24.390;2023-05-20T08:58:14;94801.59;;;22.47;48.64
32243;BME280;18731;42.830;24.390;2023-05-20T09:00:40;94809.47;;;23.00;46.07
32243;BME280;18731;42.830;24.390;2023-05-20T09:03:06;94795.75;;;23.15;45.51
32243;BME280;18731;42.830;24.390;2023-05-20T09:05:33;94797.75;;;23.62;46.18
32243;BME280;18731;42.830;24.390;2023-05-20T09:08:09;94801.13;;;24.11;42.11
32243;BME280;18731;42.830;24.390;2023-05-20T09:10:38;94761.53;;;24.33;41.48
32243;BME280;18731;42.830;24.390;2023-05-20T09:13:05;94804.25;;;25.05;42.60
32243;BME280;18731;42.830;24.390;2023-05-20T09:15:32;94803.22;;;24.95;41.76
32243;BME280;18731;42.830;24.390;2023-05-20T09:18:02;94799.19;;;24.46;39.64
32243;BME280;18731;42.830;24.390;2023-05-20T09:20:29;94797.53;;;23.84;41.70
32243;BME280;18731;42.830;24.390;2023-05-20T09:23:01;94800.09;;;23.08;41.43
32243;BME280;18731;42.830;24.390;2023-05-20T09:25:27;94802.31;;;22.58;42.76
32243;BME280;18731;42.830;24.390;2023-05-20T09:27:54;94793.19;;;22.17;42.83
32243;BME280;18731;42.830;24.390;2023-05-20T09:30:21;94793.28;;;21.74;42.86
32243;BME280;18731;42.830;24.390;2023-05-20T09:32:57;94753.00;;;20.94;44.84
32243;BME280;18731;42.830;24.390;2023-05-20T09:35:24;94788.31;;;21.23;44.24
32243;BME280;18731;42.830;24.390;2023-05-20T09:37:55;94787.91;;;21.45;45.38
32243;BME280;18731;42.830;24.390;2023-05-20T09:40:27;94786.72;;;21.64;43.17
32243;BME280;18731;42.830;24.390;2023-05-20T09:42:56;94786.22;;;22.12;42.82
32243;BME280;18731;42.830;24.390;2023-05-20T09:45:24;94749.81;;;21.77;43.12
32243;BME280;18731;42.830;24.390;2023-05-20T09:47:51;94769.59;;;21.74;42.75
32243;BME280;18731;42.830;24.390;2023-05-20T09:50:18;94771.97;;;21.55;43.97
32243;BME280;18731;42.830;24.390;2023-05-20T09:52:47;94780.94;;;21.37;44.79
32243;BME280;18731;42.830;24.390;2023-05-20T09:55:15;94786.34;;;21.19;44.77
32243;BME280;18731;42.830;24.390;2023-05-20T09:57:41;94728.91;;;20.61;46.68
32243;BME280;18731;42.830;24.390;2023-05-20T10:00:07;94781.22;;;20.58;46.85
32243;BME280;18731;42.830;24.390;2023-05-20T10:02:34;94746.25;;;19.48;50.17
32243;BME280;18731;42.830;24.390;2023-05-20T10:05:16;94808.81;;;19.36;52.71
32243;BME280;18731;42.830;24.390;2023-05-20T10:10:41;94818.56;;;18.96;60.04
32243;BME280;18731;42.830;24.390;2023-05-20T10:13:22;94828.50;;;18.85;61.91
32243;BME280;18731;42.830;24.390;2023-05-20T10:16:04;94831.88;;;18.41;63.19
32243;BME280;18731;42.830;24.390;2023-05-20T10:18:39;94834.94;;;18.10;63.63
32243;BME280;18731;42.830;24.390;2023-05-20T10:21:16;94830.81;;;17.89;65.81
32243;BME280;18731;42.830;24.390;2023-05-20T10:23:43;94815.56;;;17.74;66.24
32243;BME280;18731;42.830;24.390;2023-05-20T10:26:09;94825.59;;;17.74;69.84
32243;BME280;18731;42.830;24.390;2023-05-20T10:28:36;94834.06;;;17.49;71.35
32243;BME280;18731;42.830;24.390;2023-05-20T10:31:13;94830.97;;;17.47;72.91
32243;BME280;18731;42.830;24.390;2023-05-20T10:33:51;94826.25;;;17.18;74.34
32243;BME280;18731;42.830;24.390;2023-05-20T10:36:27;94819.63;;;16.89;76.61
32243;BME280;18731;42.830;24.390;2023-05-20T10:38:54;94816.91;;;17.12;77.32
32243;BME280;18731;42.830;24.390;2023-05-20T10:41:24;94804.44;;;17.26;76.06
32243;BME280;18731;42.830;24.390;2023-05-20T10:44:04;94809.22;;;17.63;73.92
32243;BME280;18731;42.830;24.390;2023-05-20T10:46:32;94801.97;;;17.97;72.29
32243;BME280;18731;42.830;24.390;2023-05-20T10:49:15;94795.13;;;18.37;70.16
32243;BME280;18731;42.830;24.390;2023-05-20T10:51:43;94782.09;;;18.79;71.10
32243;BME280;18731;42.830;24.390;2023-05-20T10:54:09;94752.81;;;18.92;68.65
32243;BME280;18731;42.830;24.390;2023-05-20T10:56:35;94802.34;;;19.47;62.61
32243;BME280;18731;42.830;24.390;2023-05-20T10:59:01;94784.72;;;19.71;61.32
32243;BME280;18731;42.830;24.390;2023-05-20T11:01:27;94783.25;;;19.84;58.04
32243;BME280;18731;42.830;24.390;2023-05-20T11:03:53;94791.94;;;20.29;61.06
32243;BME280;18731;42.830;24.390;2023-05-20T11:06:27;94790.19;;;20.86;60.16
32243;BME280;18731;42.830;24.390;2023-05-20T11:08:54;94780.91;;;21.05;58.49
32243;BME280;18731;42.830;24.390;2023-05-20T11:11:21;94780.53;;;21.14;57.98
32243;BME280;18731;42.830;24.390;2023-05-20T11:13:50;94782.84;;;21.08;56.86
32243;BME280;18731;42.830;24.390;2023-05-20T11:16:19;94786.69;;;20.86;58.30
32243;BME280;18731;42.830;24.390;2023-05-20T11:18:47;94785.50;;;20.80;53.15
32243;BME280;18731;42.830;24.390;2023-05-20T11:21:13;94788.66;;;20.89;55.74
32243;BME280;18731;42.830;24.390;2023-05-20T11:23:39;94782.44;;;20.92;51.78
32243;BME280;18731;42.830;24.390;2023-05-20T11:26:05;94772.34;;;20.82;50.74
32243;BME280;18731;42.830;24.390;2023-05-20T11:28:31;94770.00;;;20.77;49.33
32243;BME280;18731;42.830;24.390;2023-05-20T11:30:58;94774.66;;;20.73;47.82
32243;BME280;18731;42.830;24.390;2023-05-20T11:33:25;94771.53;;;20.71;47.59
32243;BME280;18731;42.830;24.390;2023-05-20T11:35:52;94761.91;;;20.84;48.51
32243;BME280;18731;42.830;24.390;2023-05-20T11:38:19;94756.47;;;21.19;48.98
32243;BME280;18731;42.830;24.390;2023-05-20T11:40:50;94756.09;;;21.10;45.77
32243;BME280;18731;42.830;24.390;2023-05-20T11:43:16;94757.66;;;21.08;45.66
32243;BME280;18731;42.830;24.390;2023-05-20T11:45:44;94744.41;;;20.67;45.59
32243;BME280;18731;42.830;24.390;2023-05-20T11:48:10;94733.59;;;20.92;47.36
32243;BME280;18731;42.830;24.390;2023-05-20T11:50:39;94734.38;;;21.28;46.21
32243;BME280;18731;42.830;24.390;2023-05-20T11:53:15;94721.50;;;21.64;43.92
32243;BME280;18731;42.830;24.390;2023-05-20T11:55:56;94720.19;;;22.11;42.59
32243;BME280;18731;42.830;24.390;2023-05-20T11:58:30;94721.75;;;22.02;44.05
32243;BME280;18731;42.830;24.390;2023-05-20T12:00:56;94720.78;;;22.48;44.41
32243;BME280;18731;42.830;24.390;2023-05-20T12:03:22;94722.69;;;23.09;45.27
32243;BME280;18731;42.830;24.390;2023-05-20T12:05:48;94724.47;;;23.27;41.69
32243;BME280;18731;42.830;24.390;2023-05-20T12:08:15;94716.91;;;23.49;41.94
32243;BME280;18731;42.830;24.390;2023-05-20T12:10:41;94700.06;;;23.16;39.32
32243;BME280;18731;42.830;24.390;2023-05-20T12:13:07;94703.38;;;22.93;37.09
32243;BME280;18731;42.830;24.390;2023-05-20T12:15:36;94691.84;;;22.71;37.89
32243;BME280;18731;42.830;24.390;2023-05-20T12:18:02;94693.31;;;22.87;38.17
32243;BME280;18731;42.830;24.390;2023-05-20T12:20:29;94697.31;;;22.68;38.92
32243;BME280;18731;42.830;24.390;2023-05-20T12:22:59;94685.63;;;22.71;37.20
32243;BME280;18731;42.830;24.390;2023-05-20T12:25:26;94679.41;;;22.74;37.70
32243;BME280;18731;42.830;24.390;2023-05-20T12:27:52;94681.06;;;22.61;38.73
32243;BME280;18731;42.830;24.390;2023-05-20T12:30:19;94675.53;;;22.12;38.97
32243;BME280;18731;42.830;24.390;2023-05-20T12:32:46;94680.72;;;21.78;39.60
32243;BME280;18731;42.830;24.390;2023-05-20T12:35:12;94685.06;;;21.58;40.94
32243;BME280;18731;42.830;24.390;2023-05-20T12:37:39;94684.72;;;21.38;40.62
32243;BME280;18731;42.830;24.390;2023-05-20T12:40:10;94676.19;;;21.40;40.30
32243;BME280;18731;42.830;24.390;2023-05-20T12:42:40;94673.13;;;21.24;41.37
32243;BME280;18731;42.830;24.390;2023-05-20T12:45:07;94669.25;;;20.75;40.05
32243;BME280;18731;42.830;24.390;2023-05-20T12:47:34;94649.47;;;20.42;40.51
32243;BME280;18731;42.830;24.390;2023-05-20T12:50:00;94659.94;;;20.47;41.35
32243;BME280;18731;42.830;24.390;2023-05-20T12:52:27;94651.03;;;20.50;42.30
32243;BME280;18731;42.830;24.390;2023-05-20T12:54:55;94649.47;;;20.42;41.51
32243;BME280;18731;42.830;24.390;2023-05-20T12:57:24;94635.09;;;20.20;41.74
32243;BME280;18731;42.830;24.390;2023-05-20T12:59:50;94638.97;;;20.23;42.97
32243;BME280;18731;42.830;24.390;2023-05-20T13:02:16;94641.63;;;19.87;42.57
32243;BME280;18731;42.830;24.390;2023-05-20T13:04:41;94639.72;;;20.06;42.67
32243;BME280;18731;42.830;24.390;2023-05-20T13:07:07;94627.31;;;19.94;44.03
32243;BME280;18731;42.830;24.390;2023-05-20T13:09:33;94574.66;;;19.77;43.85
32243;BME280;18731;42.830;24.390;2023-05-20T13:11:59;94633.50;;;19.95;43.04
32243;BME280;18731;42.830;24.390;2023-05-20T13:14:25;94636.19;;;19.80;42.69
32243;BME280;18731;42.830;24.390;2023-05-20T13:16:51;94623.38;;;19.70;43.63
32243;BME280;18731;42.830;24.390;2023-05-20T13:19:22;94637.28;;;19.58;43.95
32243;BME280;18731;42.830;24.390;2023-05-20T13:21:49;94613.31;;;19.64;43.38
32243;BME280;18731;42.830;24.390;2023-05-20T13:24:16;94610.25;;;19.72;44.15
32243;BME280;18731;42.830;24.390;2023-05-20T13:26:42;94616.13;;;20.13;42.99
32243;BME280;18731;42.830;24.390;2023-05-20T13:29:08;94612.69;;;20.59;43.63
32243;BME280;18731;42.830;24.390;2023-05-20T13:31:34;94606.88;;;20.82;41.88
32243;BME280;18731;42.830;24.390;2023-05-20T13:34:00;94612.59;;;21.19;45.16
32243;BME280;18731;42.830;24.390;2023-05-20T13:36:26;94604.00;;;21.49;43.20
32243;BME280;18731;42.830;24.390;2023-05-20T13:38:52;94594.66;;;21.58;42.81
32243;BME280;18731;42.830;24.390;2023-05-20T13:41:18;94597.38;;;21.58;41.78
32243;BME280;18731;42.830;24.390;2023-05-20T13:43:43;94588.22;;;21.12;41.74
32243;BME280;18731;42.830;24.390;2023-05-20T13:46:09;94584.72;;;21.23;41.11
32243;BME280;18731;42.830;24.390;2023-05-20T13:48:35;94555.22;;;21.25;42.42
32243;BME280;18731;42.830;24.390;2023-05-20T13:51:01;94579.91;;;21.59;41.79
32243;BME280;18731;42.830;24.390;2023-05-20T13:53:27;94584.13;;;21.70;42.96
32243;BME280;18731;42.830;24.390;2023-05-20T13:55:53;94588.38;;;21.71;40.53
32243;BME280;18731;42.830;24.390;2023-05-20T13:58:19;94566.69;;;21.64;40.48
32243;BME280;18731;42.830;24.390;2023-05-20T14:00:44;94575.63;;;21.61;41.06
32243;BME280;18731;42.830;24.390;2023-05-20T14:03:10;94562.03;;;21.61;40.74
32243;BME280;18731;42.830;24.390;2023-05-20T14:05:36;94573.50;;;21.94;42.39
32243;BME280;18731;42.830;24.390;2023-05-20T14:08:02;94581.25;;;21.95;41.25
32243;BME280;18731;42.830;24.390;2023-05-20T14:10:28;94571.78;;;22.21;42.62
32243;BME280;18731;42.830;24.390;2023-05-20T14:12:54;94561.72;;;22.18;40.15
32243;BME280;18731;42.830;24.390;2023-05-20T14:15:19;94562.59;;;21.97;41.03
32243;BME280;18731;42.830;24.390;2023-05-20T14:17:46;94570.41;;;21.92;42.56
32243;BME280;18731;42.830;24.390;2023-05-20T14:20:12;94561.53;;;21.80;41.24
32243;BME280;18731;42.830;24.390;2023-05-20T14:22:38;94559.91;;;21.94;41.37
32243;BME280;18731;42.830;24.390;2023-05-20T14:25:04;94562.81;;;22.24;43.23
32243;BME280;18731;42.830;24.390;2023-05-20T14:27:30;94564.31;;;22.32;41.40
32243;BME280;18731;42.830;24.390;2023-05-20T14:29:56;94562.78;;;22.28;40.89
32243;BME280;18731;42.830;24.390;2023-05-20T14:32:22;94568.53;;;22.40;39.89
32243;BME280;18731;42.830;24.390;2023-05-20T14:34:47;94564.06;;;22.61;39.86
32243;BME280;18731;42.830;24.390;2023-05-20T14:37:13;94478.16;;;21.70;40.87
32243;BME280;18731;42.830;24.390;2023-05-20T14:39:40;94563.72;;;22.07;41.25
32243;BME280;18731;42.830;24.390;2023-05-20T14:42:06;94555.56;;;22.10;41.58
32243;BME280;18731;42.830;24.390;2023-05-20T14:44:31;94556.28;;;22.14;40.74
32243;BME280;18731;42.830;24.390;2023-05-20T14:46:57;94553.19;;;22.16;41.45
32243;BME280;18731;42.830;24.390;2023-05-20T14:49:22;94543.91;;;22.10;41.85
32243;BME280;18731;42.830;24.390;2023-05-20T14:51:48;94556.06;;;21.88;41.53
32243;BME280;18731;42.830;24.390;2023-05-20T14:54:14;94546.47;;;21.72;41.90
32243;BME280;18731;42.830;24.390;2023-05-20T14:56:41;94547.66;;;21.64;42.53
32243;BME280;18731;42.830;24.390;2023-05-20T14:59:07;94542.81;;;21.24;43.37
32243;BME280;18731;42.830;24.390;2023-05-20T15:01:34;94542.88;;;21.02;43.93
32243;BME280;18731;42.830;24.390;2023-05-20T15:04:02;94539.03;;;20.89;44.29
32243;BME280;18731;42.830;24.390;2023-05-20T15:06:28;94538.25;;;20.92;44.70
32243;BME280;18731;42.830;24.390;2023-05-20T15:08:55;94532.84;;;20.92;44.84
32243;BME280;18731;42.830;24.390;2023-05-20T15:11:21;94540.59;;;20.83;45.73
32243;BME280;18731;42.830;24.390;2023-05-20T15:13:47;94551.84;;;20.67;46.01
32243;BME280;18731;42.830;24.390;2023-05-20T15:16:12;94539.44;;;20.70;45.39
32243;BME280;18731;42.830;24.390;2023-05-20T15:18:38;94537.13;;;20.68;48.98
32243;BME280;18731;42.830;24.390;2023-05-20T15:21:04;94537.13;;;20.61;47.72
32243;BME280;18731;42.830;24.390;2023-05-20T15:23:30;94534.44;;;20.61;50.23
32243;BME280;18731;42.830;24.390;2023-05-20T15:25:55;94542.94;;;20.63;51.01
32243;BME280;18731;42.830;24.390;2023-05-20T15:28:24;94539.88;;;20.47;53.65
32243;BME280;18731;42.830;24.390;2023-05-20T15:30:54;94546.84;;;20.44;54.83
32243;BME280;18731;42.830;24.390;2023-05-20T15:33:21;94542.19;;;20.45;55.74
32243;BME280;18731;42.830;24.390;2023-05-20T15:35:47;94547.59;;;20.27;55.15
32243;BME280;18731;42.830;24.390;2023-05-20T15:38:14;94532.50;;;20.05;54.66
32243;BME280;18731;42.830;24.390;2023-05-20T15:40:40;94535.22;;;19.90;55.10
32243;BME280;18731;42.830;24.390;2023-05-20T15:43:06;94541.78;;;19.86;56.32
32243;BME280;18731;42.830;24.390;2023-05-20T15:45:32;94529.00;;;19.69;56.86
32243;BME280;18731;42.830;24.390;2023-05-20T15:48:05;94546.75;;;19.55;55.67
32243;BME280;18731;42.830;24.390;2023-05-20T15:50:31;94547.53;;;19.56;54.06
32243;BME280;18731;42.830;24.390;2023-05-20T15:52:57;94539.75;;;19.51;56.06
32243;BME280;18731;42.830;24.390;2023-05-20T15:55:22;94542.81;;;19.39;56.14
32243;BME280;18731;42.830;24.390;2023-05-20T15:57:49;94545.91;;;19.41;56.89
32243;BME280;18731;42.830;24.390;2023-05-20T16:00:17;94544.75;;;19.35;57.53
32243;BME280;18731;42.830;24.390;2023-05-20T16:02:44;94543.97;;;19.38;60.04
32243;BME280;18731;42.830;24.390;2023-05-20T16:05:10;94530.78;;;19.25;59.86
32243;BME280;18731;42.830;24.390;2023-05-20T16:07:36;94535.03;;;19.19;60.32
32243;BME280;18731;42.830;24.390;2023-05-20T16:10:02;94539.25;;;19.10;61.30
32243;BME280;18731;42.830;24.390;2023-05-20T16:12:28;94531.44;;;18.94;63.41
32243;BME280;18731;42.830;24.390;2023-05-20T16:14:54;94524.00;;;18.73;62.01
32243;BME280;18731;42.830;24.390;2023-05-20T16:17:20;94539.44;;;18.73;62.03
32243;BME280;18731;42.830;24.390;2023-05-20T16:19:46;94547.19;;;18.74;61.98
32243;BME280;18731;42.830;24.390;2023-05-20T16:22:13;94546.56;;;18.44;60.45
32243;BME280;18731;42.830;24.390;2023-05-20T16:24:39;94566.63;;;18.39;60.51
32243;BME280;18731;42.830;24.390;2023-05-20T16:27:06;94584.72;;;18.35;60.98
32243;BME280;18731;42.830;24.390;2023-05-20T16:29:32;94596.53;;;18.20;63.81
32243;BME280;18731;42.830;24.390;2023-05-20T16:31:58;94593.63;;;17.95;61.99
32243;BME280;18731;42.830;24.390;2023-05-20T16:34:24;94629.38;;;17.81;58.37
32243;BME280;18731;42.830;24.390;2023-05-20T16:36:50;94599.63;;;17.44;56.94
32243;BME280;18731;42.830;24.390;2023-05-20T16:39:16;94616.97;;;17.43;58.02
32243;BME280;18731;42.830;24.390;2023-05-20T16:41:42;94624.19;;;17.35;59.15
32243;BME280;18731;42.830;24.390;2023-05-20T16:44:08;94629.78;;;17.20;60.22
32243;BME280;18731;42.830;24.390;2023-05-20T16:46:35;94623.28;;;16.94;60.62
32243;BME280;18731;42.830;24.390;2023-05-20T16:49:01;94609.03;;;16.67;62.22
32243;BME280;18731;42.830;24.390;2023-05-20T16:51:27;94615.03;;;16.57;62.28
32243;BME280;18731;42.830;24.390;2023-05-20T16:53:52;94631.91;;;16.54;61.58
32243;BME280;18731;42.830;24.390;2023-05-20T16:56:20;94616.97;;;16.34;64.08
32243;BME280;18731;42.830;24.390;2023-05-20T16:58:46;94613.75;;;16.25;64.01
32243;BME280;18731;42.830;24.390;2023-05-20T17:01:12;94614.41;;;16.18;64.57
32243;BME280;18731;42.830;24.390;2023-05-20T17:03:38;94615.06;;;16.12;65.63
32243;BME280;18731;42.830;24.390;2023-05-20T17:06:03;94607.59;;;16.01;66.36
32243;BME280;18731;42.830;24.390;2023-05-20T17:08:29;94624.09;;;16.00;67.14
32243;BME280;18731;42.830;24.390;2023-05-20T17:10:56;94639.19;;;16.04;69.15
32243;BME280;18731;42.830;24.390;2023-05-20T17:13:22;94622.19;;;16.00;70.50
32243;BME280;18731;42.830;24.390;2023-05-20T17:15:48;94630.81;;;16.10;70.23
32243;BME280;18731;42.830;24.390;2023-05-20T17:18:14;94626.19;;;16.10;70.64
32243;BME280;18731;42.830;24.390;2023-05-20T17:20:40;94624.22;;;16.07;72.35
32243;BME280;18731;42.830;24.390;2023-05-20T17:23:06;94624.16;;;16.03;73.21
32243;BME280;18731;42.830;24.390;2023-05-20T17:25:31;94633.38;;;16.02;73.97
32243;BME280;18731;42.830;24.390;2023-05-20T17:27:57;94637.50;;;15.96;74.03
32243;BME280;18731;42.830;24.390;2023-05-20T17:30:23;94644.72;;;15.92;74.62
32243;BME280;18731;42.830;24.390;2023-05-20T17:32:48;94624.69;;;15.90;74.41
32243;BME280;18731;42.830;24.390;2023-05-20T17:35:14;94644.03;;;15.95;74.70
32243;BME280;18731;42.830;24.390;2023-05-20T17:37:40;94642.34;;;15.87;75.95
32243;BME280;18731;42.830;24.390;2023-05-20T17:40:06;94640.78;;;15.86;75.61
32243;BME280;18731;42.830;24.390;2023-05-20T17:42:32;94639.66;;;15.87;75.95
32243;BME280;18731;42.830;24.390;2023-05-20T17:44:58;94641.06;;;15.81;76.82
32243;BME280;18731;42.830;24.390;2023-05-20T17:47:24;94641.59;;;15.67;77.30
32243;BME280;18731;42.830;24.390;2023-05-20T17:49:50;94631.53;;;15.64;76.60
32243;BME280;18731;42.830;24.390;2023-05-20T17:52:15;94637.28;;;15.63;76.65
32243;BME280;18731;42.830;24.390;2023-05-20T17:54:41;94627.75;;;15.50;77.48
32243;BME280;18731;42.830;24.390;2023-05-20T17:57:07;94623.34;;;15.41;77.68
32243;BME280;18731;42.830;24.390;2023-05-20T17:59:33;94635.59;;;15.39;78.81
32243;BME280;18731;42.830;24.390;2023-05-20T18:02:04;94622.78;;;15.32;79.47
32243;BME280;18731;42.830;24.390;2023-05-20T18:04:30;94631.28;;;15.34;79.62
32243;BME280;18731;42.830;24.390;2023-05-20T18:06:56;94631.84;;;15.24;79.08
32243;BME280;18731;42.830;24.390;2023-05-20T18:09:22;94631.00;;;15.20;79.47
32243;BME280;18731;42.830;24.390;2023-05-20T18:11:48;94629.72;;;15.14;79.90
32243;BME280;18731;42.830;24.390;2023-05-20T18:14:13;94632.69;;;15.09;80.26
32243;BME280;18731;42.830;24.390;2023-05-20T18:16:39;94628.44;;;15.08;80.70
32243;BME280;18731;42.830;24.390;2023-05-20T18:19:05;94628.28;;;15.01;80.55
32243;BME280;18731;42.830;24.390;2023-05-20T18:21:31;94623.47;;;14.91;81.00
32243;BME280;18731;42.830;24.390;2023-05-20T18:23:57;94627.69;;;14.72;81.55
32243;BME280;18731;42.830;24.390;2023-05-20T18:26:23;94633.06;;;14.72;81.74
32243;BME280;18731;42.830;24.390;2023-05-20T18:28:49;94635.63;;;14.85;81.15
32243;BME280;18731;42.830;24.390;2023-05-20T18:31:14;94632.06;;;14.80;81.38
32243;BME280;18731;42.830;24.390;2023-05-20T18:33:40;94634.06;;;14.84;81.33
32243;BME280;18731;42.830;24.390;2023-05-20T18:36:07;94644.13;;;14.87;81.63
32243;BME280;18731;42.830;24.390;2023-05-20T18:38:33;94646.38;;;14.85;81.97
32243;BME280;18731;42.830;24.390;2023-05-20T18:40:58;94636.75;;;14.84;82.12
32243;BME280;18731;42.830;24.390;2023-05-20T18:43:24;94643.53;;;14.77;82.49
32243;BME280;18731;42.830;24.390;2023-05-20T18:45:51;94640.13;;;14.80;81.91
32243;BME280;18731;42.830;24.390;2023-05-20T18:48:16;94648.19;;;14.80;82.26
32243;BME280;18731;42.830;24.390;2023-05-20T18:50:42;94658.34;;;14.71;83.07
32243;BME280;18731;42.830;24.390;2023-05-20T18:53:08;94649.25;;;14.76;82.60
32243;BME280;18731;42.830;24.390;2023-05-20T18:55:34;94658.97;;;14.65;83.04
32243;BME280;18731;42.830;24.390;2023-05-20T18:57:59;94647.19;;;14.69;83.09
32243;BME280;18731;42.830;24.390;2023-05-20T19:00:25;94667.66;;;14.58;83.12
32243;BME280;18731;42.830;24.390;2023-05-20T19:02:51;94645.47;;;14.45;83.54
32243;BME280;18731;42.830;24.390;2023-05-20T19:05:17;94658.72;;;14.54;83.82
32243;BME280;18731;42.830;24.390;2023-05-20T19:07:44;94649.91;;;14.54;83.46
32243;BME280;18731;42.830;24.390;2023-05-20T19:10:10;94650.06;;;14.61;83.37
32243;BME280;18731;42.830;24.390;2023-05-20T19:12:36;94643.63;;;14.65;82.97
32243;BME280;18731;42.830;24.390;2023-05-20T19:15:01;94642.50;;;14.66;83.34
32243;BME280;18731;42.830;24.390;2023-05-20T19:17:29;94619.66;;;14.57;82.94